createdAt,value
2023-04-28T00:00:42.443Z,72.10
2023-04-28T00:03:10.847Z,72.40
2023-04-28T00:05:41.327Z,72.70
2023-04-28T00:08:09.952Z,72.70
2023-04-28T00:10:38.260Z,72.70
2023-04-28T00:13:06.542Z,72.70
2023-04-28T00:15:35.309Z,72.70
2023-04-28T00:18:03.655Z,72.70
2023-04-28T00:20:32.162Z,72.80
2023-04-28T00:23:01.835Z,73.00
2023-04-28T00:25:30.123Z,73.00
2023-04-28T00:27:58.439Z,73.10
2023-04-28T00:30:26.768Z,73.30
2023-04-28T00:32:55.939Z,73.30
2023-04-28T00:35:24.514Z,73.40
2023-04-28T00:37:52.726Z,73.50
2023-04-28T00:40:22.412Z,73.60
2023-04-28T00:42:50.855Z,74.00
2023-04-28T00:45:19.203Z,74.10
2023-04-28T00:47:47.544Z,74.00
2023-04-28T00:50:16.974Z,74.00
2023-04-28T00:52:45.273Z,74.00
2023-04-28T00:55:16.255Z,74.10
2023-04-28T00:57:46.359Z,74.10
2023-04-28T01:00:17.131Z,74.20
2023-04-28T01:02:45.656Z,75.20
2023-04-28T01:05:15.229Z,74.40
2023-04-28T01:07:43.514Z,74.30
2023-04-28T01:10:12.032Z,74.30
2023-04-28T01:12:40.338Z,74.10
2023-04-28T01:15:14.778Z,74.00
2023-04-28T01:17:43.310Z,73.80
2023-04-28T01:20:12.412Z,73.60
2023-04-28T01:22:40.716Z,73.60
2023-04-28T01:25:10.816Z,73.20
2023-04-28T01:27:39.078Z,73.20
2023-04-28T01:30:08.915Z,73.40
2023-04-28T01:32:37.346Z,73.40
2023-04-28T01:35:06.069Z,73.40
2023-04-28T01:37:34.363Z,73.10
2023-04-28T01:40:02.686Z,72.80
2023-04-28T01:42:32.465Z,72.80
2023-04-28T01:45:00.749Z,72.80
2023-04-28T01:47:29.016Z,72.80
2023-04-28T01:49:57.291Z,72.80
2023-04-28T01:52:25.556Z,72.70
2023-04-28T01:54:53.910Z,72.80
2023-04-28T01:57:22.520Z,73.00
2023-04-28T01:59:53.062Z,72.80
2023-04-28T02:02:21.790Z,72.80
2023-04-28T02:04:50.226Z,72.80
2023-04-28T02:07:18.635Z,72.80
2023-04-28T02:09:47.080Z,72.80
2023-04-28T02:12:15.315Z,72.80
2023-04-28T02:14:43.635Z,73.00
2023-04-28T02:17:13.372Z,73.00
2023-04-28T02:19:41.679Z,73.20
2023-04-28T02:22:09.939Z,73.30
2023-04-28T02:24:38.743Z,73.50
2023-04-28T02:27:07.161Z,73.70
2023-04-28T02:29:35.526Z,73.90
2023-04-28T02:32:04.655Z,73.90
2023-04-28T02:34:34.318Z,74.10
2023-04-28T02:37:02.975Z,74.20
2023-04-28T02:39:33.050Z,74.50
2023-04-28T02:42:01.328Z,74.70
2023-04-28T02:44:29.578Z,74.90
2023-04-28T02:46:58.025Z,75.10
2023-04-28T02:49:26.391Z,75.20
2023-04-28T02:51:56.149Z,75.60
2023-04-28T02:54:28.461Z,75.70
2023-04-28T02:56:57.353Z,75.60
2023-04-28T02:59:27.237Z,75.70
2023-04-28T03:01:55.523Z,75.80
2023-04-28T03:04:23.913Z,75.90
2023-04-28T03:06:52.432Z,76.10
2023-04-28T03:09:22.125Z,76.00
2023-04-28T03:11:50.505Z,76.00
2023-04-28T03:14:28.079Z,75.90
2023-04-28T03:16:57.965Z,75.80
2023-04-28T03:19:26.687Z,75.80
2023-04-28T03:21:55.037Z,75.70
2023-04-28T03:24:25.052Z,75.80
2023-04-28T03:26:53.438Z,75.80
2023-04-28T03:29:22.312Z,75.70
2023-04-28T03:31:51.208Z,75.80
2023-04-28T03:34:19.574Z,75.80
2023-04-28T03:36:48.120Z,75.70
2023-04-28T03:39:16.455Z,75.70
2023-04-28T03:41:46.190Z,75.90
2023-04-28T03:44:14.868Z,76.00
2023-04-28T03:46:43.353Z,75.90
2023-04-28T03:49:11.734Z,75.90
2023-04-28T03:51:39.982Z,75.90
2023-04-28T03:54:08.425Z,76.00
2023-04-28T03:56:36.752Z,76.00
2023-04-28T03:59:06.471Z,76.00
2023-04-28T04:01:34.737Z,76.10
2023-04-28T04:04:03.411Z,76.10
2023-04-28T04:06:32.351Z,76.10
2023-04-28T04:09:00.669Z,76.00
2023-04-28T04:11:29.004Z,76.70
2023-04-28T04:13:57.284Z,75.80
2023-04-28T04:16:27.215Z,75.80
2023-04-28T04:18:55.549Z,75.80
2023-04-28T04:21:23.933Z,75.70
2023-04-28T04:23:52.219Z,76.00
2023-04-28T04:26:24.507Z,75.90
2023-04-28T04:28:52.743Z,75.80
2023-04-28T04:31:22.760Z,75.70
2023-04-28T04:33:53.477Z,75.50
2023-04-28T04:36:21.927Z,75.50
2023-04-28T04:38:50.695Z,75.40
2023-04-28T04:41:21.253Z,75.40
2023-04-28T04:43:49.679Z,75.10
2023-04-28T04:46:18.044Z,75.00
2023-04-28T04:48:46.483Z,74.70
2023-04-28T04:51:16.247Z,74.70
2023-04-28T04:53:44.617Z,74.80
2023-04-28T04:56:12.950Z,74.90
2023-04-28T04:58:41.692Z,74.90
2023-04-28T05:01:10.357Z,75.00
2023-04-28T05:03:38.783Z,75.00
2023-04-28T05:06:07.472Z,75.00
2023-04-28T05:08:37.141Z,75.00
2023-04-28T05:11:05.582Z,74.90
2023-04-28T05:13:33.816Z,74.90
2023-04-28T05:16:02.206Z,75.00
2023-04-28T05:18:30.732Z,75.00
2023-04-28T05:20:59.058Z,75.20
2023-04-28T05:23:27.449Z,75.30
2023-04-28T05:25:57.192Z,75.20
2023-04-28T05:28:25.439Z,75.50
2023-04-28T05:30:53.760Z,75.60
2023-04-28T05:33:23.861Z,75.60
2023-04-28T05:35:52.402Z,75.70
2023-04-28T05:38:22.831Z,75.90
2023-04-28T05:40:51.797Z,75.70
2023-04-28T05:43:21.573Z,75.80
2023-04-28T05:45:50.005Z,75.50
2023-04-28T05:48:18.362Z,74.70
2023-04-28T05:50:46.859Z,74.70
2023-04-28T05:53:15.129Z,74.70
2023-04-28T05:55:43.545Z,74.50
2023-04-28T05:58:11.916Z,73.80
2023-04-28T06:00:41.666Z,73.60
2023-04-28T06:03:11.525Z,73.60
2023-04-28T06:05:40.552Z,73.00
2023-04-28T06:08:08.998Z,72.70
2023-04-28T06:10:37.317Z,72.70
2023-04-28T06:13:06.616Z,72.10
2023-04-28T06:15:35.307Z,71.80
2023-04-28T06:18:06.615Z,72.00
2023-04-28T06:20:35.761Z,72.10
2023-04-28T06:23:04.645Z,71.90
2023-04-28T06:25:33.049Z,71.60
2023-04-28T06:28:01.413Z,71.50
2023-04-28T06:30:29.908Z,71.20
2023-04-28T06:32:58.738Z,70.40
2023-04-28T06:35:29.423Z,69.60
2023-04-28T06:37:57.820Z,69.70
2023-04-28T06:40:26.130Z,69.10
2023-04-28T06:42:54.605Z,69.40
2023-04-28T06:45:22.948Z,69.40
2023-04-28T06:47:51.413Z,69.40
2023-04-28T06:50:19.772Z,69.30
2023-04-28T06:52:49.501Z,69.10
2023-04-28T06:55:18.556Z,68.20
2023-04-28T06:57:46.929Z,66.00
2023-04-28T07:00:16.251Z,66.40
2023-04-28T07:02:44.918Z,66.20
2023-04-28T07:05:16.047Z,65.80
2023-04-28T07:07:45.211Z,66.60
2023-04-28T07:10:15.812Z,65.60
2023-04-28T07:12:44.362Z,65.10
2023-04-28T07:15:13.345Z,65.10
2023-04-28T07:17:41.691Z,65.70
2023-04-28T07:20:10.840Z,65.70
2023-04-28T07:22:39.402Z,64.60
2023-04-28T07:25:08.018Z,63.00
2023-04-28T07:27:37.834Z,62.90
2023-04-28T07:30:25.210Z,62.60
2023-04-28T07:32:55.669Z,59.30
2023-04-28T07:35:24.255Z,60.10
2023-04-28T07:37:53.076Z,60.20
2023-04-28T07:40:21.823Z,59.40
2023-04-28T07:42:52.132Z,58.90
2023-04-28T07:45:20.677Z,58.90
2023-04-28T07:47:49.065Z,58.70
2023-04-28T07:50:18.130Z,57.80
2023-04-28T07:52:46.522Z,58.50
2023-04-28T07:55:14.880Z,58.50
2023-04-28T08:01:38.006Z,58.50
2023-04-28T08:04:06.614Z,57.90
2023-04-28T08:06:36.346Z,57.20
2023-04-28T08:09:06.107Z,56.50
2023-04-28T08:11:34.673Z,55.20
2023-04-28T08:14:03.518Z,54.70
2023-04-28T08:16:34.506Z,54.20
2023-04-28T08:19:04.344Z,54.50
2023-04-28T08:21:33.037Z,54.00
2023-04-28T08:24:01.853Z,53.90
2023-04-28T08:26:30.408Z,53.50
2023-04-28T08:28:58.756Z,53.80
2023-04-28T08:31:27.208Z,53.40
2023-04-28T08:33:55.806Z,54.00
2023-04-28T08:36:31.827Z,52.80
2023-04-28T08:39:01.631Z,52.60
2023-04-28T08:41:35.418Z,52.70
2023-04-28T08:44:03.783Z,52.40
2023-04-28T08:46:33.188Z,52.40
2023-04-28T08:49:03.683Z,52.10
2023-04-28T08:51:42.131Z,52.80
2023-04-28T08:54:25.262Z,52.90
2023-04-28T08:56:55.500Z,53.50
2023-04-28T08:59:24.115Z,53.50
2023-04-28T09:01:52.914Z,53.40
2023-04-28T09:04:22.165Z,53.60
2023-04-28T09:06:52.188Z,53.50
2023-04-28T09:09:22.582Z,52.70
2023-04-28T09:11:55.740Z,53.20
2023-04-28T09:14:24.595Z,53.40
2023-04-28T09:16:53.457Z,52.40
2023-04-28T09:19:22.505Z,53.10
2023-04-28T09:21:55.513Z,53.10
2023-04-28T09:24:31.880Z,52.40
2023-04-28T09:27:00.853Z,53.10
2023-04-28T09:29:29.512Z,52.80
2023-04-28T09:32:14.832Z,52.70
2023-04-28T09:34:47.004Z,52.80
2023-04-28T09:37:21.489Z,53.10
2023-04-28T09:39:51.877Z,52.80
2023-04-28T09:42:34.017Z,52.20
2023-04-28T09:45:03.470Z,52.00
2023-04-28T09:47:53.077Z,52.10
2023-04-28T09:50:21.532Z,52.30
2023-04-28T09:52:59.352Z,51.70
2023-04-28T09:55:29.636Z,51.70
2023-04-28T09:58:00.643Z,51.70
2023-04-28T10:00:29.904Z,52.00
2023-04-28T10:02:59.991Z,52.20
2023-04-28T10:05:47.562Z,52.10
2023-04-28T10:08:17.901Z,52.00
2023-04-28T10:10:51.048Z,51.40
2023-04-28T10:13:26.757Z,51.10
2023-04-28T10:15:58.353Z,51.90
2023-04-28T10:18:27.522Z,51.80
2023-04-28T10:20:59.679Z,52.20
2023-04-28T10:24:04.599Z,52.60
2023-04-28T10:27:06.043Z,51.10
2023-04-28T10:29:35.812Z,51.10
2023-04-28T10:32:17.801Z,50.30
2023-04-28T10:34:47.085Z,49.90
2023-04-28T10:37:17.172Z,50.00
2023-04-28T10:40:18.625Z,50.40
2023-04-28T10:42:55.073Z,50.30
2023-04-28T10:46:01.416Z,50.20
2023-04-28T10:48:55.352Z,50.60
2023-04-28T10:51:25.703Z,47.90
2023-04-28T10:54:09.612Z,48.60
2023-04-28T10:56:39.301Z,48.80
2023-04-28T10:59:29.201Z,49.30
2023-04-28T11:02:17.626Z,47.50
2023-04-28T11:05:12.067Z,48.10
2023-04-28T11:07:40.546Z,48.30
2023-04-28T11:10:09.729Z,47.70
2023-04-28T11:12:38.107Z,47.90
2023-04-28T11:15:17.499Z,47.90
2023-04-28T11:17:46.433Z,47.30
2023-04-28T11:20:15.775Z,48.40
2023-04-28T11:22:44.571Z,46.90
2023-04-28T11:25:12.858Z,46.10
2023-04-28T11:27:41.294Z,47.00
2023-04-28T11:34:34.437Z,46.10
2023-04-28T11:37:03.077Z,45.80
2023-04-28T11:39:33.455Z,45.30
2023-04-28T11:42:03.688Z,45.50
2023-04-28T11:44:33.058Z,45.60
2023-04-28T11:47:03.365Z,45.20
2023-04-28T11:49:42.835Z,45.60
2023-04-28T11:52:12.178Z,45.30
2023-04-28T11:54:43.324Z,45.60
2023-04-28T11:57:19.390Z,45.40
2023-04-28T11:59:49.018Z,45.70
2023-04-28T12:02:26.000Z,46.00
2023-04-28T12:04:55.895Z,45.60
2023-04-28T12:07:24.674Z,44.80
2023-04-28T12:10:16.018Z,44.90
2023-04-28T12:12:51.102Z,45.20
2023-04-28T12:15:21.561Z,44.10
2023-04-28T12:17:51.287Z,44.20
2023-04-28T12:20:36.796Z,44.60
2023-04-28T12:23:05.514Z,44.20
2023-04-28T12:25:35.474Z,44.30
2023-04-28T12:28:08.516Z,44.50
2023-04-28T12:30:42.160Z,44.80
2023-04-28T12:33:24.610Z,45.40
2023-04-28T12:35:56.054Z,44.50
2023-04-28T12:38:24.735Z,44.60
2023-04-28T12:40:53.951Z,44.30
2023-04-28T12:43:23.460Z,43.10
2023-04-28T12:45:53.567Z,43.60
2023-04-28T12:48:26.364Z,43.40
2023-04-28T12:50:56.164Z,43.30
2023-04-28T12:53:30.513Z,43.00
2023-04-28T12:55:59.457Z,43.40
2023-04-28T12:58:27.712Z,43.40
2023-04-28T13:00:56.038Z,43.70
2023-04-28T13:03:24.392Z,44.30
2023-04-28T13:05:53.166Z,42.90
2023-04-28T13:08:22.881Z,43.70
2023-04-28T13:10:51.176Z,43.70
2023-04-28T13:13:19.524Z,43.70
2023-04-28T13:15:47.897Z,43.40
2023-04-28T13:18:16.306Z,43.40
2023-04-28T13:20:44.852Z,43.60
2023-04-28T13:23:13.243Z,43.10
2023-04-28T13:25:42.969Z,43.00
2023-04-28T13:28:21.072Z,43.00
2023-04-28T13:30:58.823Z,42.20
2023-04-28T13:33:31.232Z,42.60
2023-04-28T13:35:59.828Z,43.40
2023-04-28T13:38:28.417Z,42.60
2023-04-28T13:40:58.282Z,42.60
2023-04-28T13:43:26.644Z,42.40
2023-04-28T13:45:56.177Z,42.10
2023-04-28T13:48:25.057Z,42.60
2023-04-28T13:50:53.366Z,42.70
2023-04-28T13:53:21.784Z,42.50
2023-04-28T13:56:10.531Z,42.20
2023-04-28T13:58:47.916Z,42.40
2023-04-28T14:01:16.509Z,41.70
2023-04-28T14:03:45.504Z,42.30
2023-04-28T14:06:23.832Z,42.50
2023-04-28T14:08:52.553Z,42.70
2023-04-28T14:11:22.662Z,42.90
2023-04-28T14:13:51.021Z,42.80
2023-04-28T14:16:19.435Z,43.10
2023-04-28T14:18:47.872Z,42.40
2023-04-28T14:21:16.702Z,42.60
2023-04-28T14:23:45.045Z,43.10
2023-04-28T14:26:13.524Z,42.50
2023-04-28T14:28:43.415Z,42.60
2023-04-28T14:31:11.865Z,42.10
2023-04-28T14:33:40.309Z,42.30
2023-04-28T14:36:09.278Z,40.50
2023-04-28T14:38:38.979Z,41.60
2023-04-28T14:41:08.648Z,41.60
2023-04-28T14:43:38.050Z,41.20
2023-04-28T14:46:08.094Z,40.00
2023-04-28T14:48:36.444Z,39.40
2023-04-28T14:51:04.961Z,40.00
2023-04-28T14:53:33.351Z,40.20
2023-04-28T14:56:17.180Z,40.40
2023-04-28T14:58:46.720Z,39.80
2023-04-28T15:01:17.605Z,40.60
2023-04-28T15:03:46.375Z,40.00
2023-04-28T15:06:18.033Z,40.00
2023-04-28T15:08:46.438Z,40.10
2023-04-28T15:11:14.824Z,40.40
2023-04-28T15:13:43.214Z,40.80
2023-04-28T15:16:11.618Z,40.00
2023-04-28T15:18:41.396Z,40.40
2023-04-28T15:21:09.661Z,41.00
2023-04-28T15:23:38.041Z,41.00
2023-04-28T15:26:06.731Z,40.30
2023-04-28T15:28:35.354Z,40.20
2023-04-28T15:31:05.167Z,40.70
2023-04-28T15:33:33.691Z,41.30
2023-04-28T15:36:03.398Z,41.40
2023-04-28T15:38:32.147Z,42.40
2023-04-28T15:41:03.194Z,42.30
2023-04-28T15:43:31.546Z,42.60
2023-04-28T15:46:01.110Z,42.90
2023-04-28T15:48:29.475Z,42.90
2023-04-28T15:50:58.631Z,43.40
2023-04-28T15:53:28.329Z,43.80
2023-04-28T15:55:56.608Z,44.00
2023-04-28T15:58:24.961Z,43.60
2023-04-28T16:00:53.284Z,44.20
2023-04-28T16:03:21.802Z,44.40
2023-04-28T16:05:50.272Z,44.30
2023-04-28T16:08:19.579Z,44.60
2023-04-28T16:10:49.501Z,45.00
2023-04-28T16:13:17.950Z,45.00
2023-04-28T16:15:46.625Z,45.00
2023-04-28T16:18:15.554Z,45.50
2023-04-28T16:20:44.287Z,46.00
2023-04-28T16:23:14.150Z,46.30
2023-04-28T16:25:42.874Z,46.40
2023-04-28T16:28:12.640Z,46.40
2023-04-28T16:30:41.117Z,46.80
2023-04-28T16:33:09.756Z,47.10
2023-04-28T16:35:38.178Z,47.40
2023-04-28T16:38:06.507Z,47.60
2023-04-28T16:40:34.825Z,48.10
2023-04-28T16:43:03.175Z,48.30
2023-04-28T16:46:08.264Z,48.50
2023-04-28T16:49:03.253Z,48.90
2023-04-28T16:51:34.239Z,49.10
2023-04-28T16:54:02.802Z,49.30
2023-04-28T16:56:32.530Z,49.70
2023-04-28T16:59:00.886Z,49.70
2023-04-28T17:01:31.719Z,50.00
2023-04-28T17:04:00.358Z,50.30
2023-04-28T17:06:29.374Z,50.30
2023-04-28T17:08:58.943Z,50.70
2023-04-28T17:11:27.786Z,51.60
2023-04-28T17:13:56.258Z,50.90
2023-04-28T17:16:24.820Z,51.20
2023-04-28T17:18:54.815Z,51.30
2023-04-28T17:21:26.394Z,51.70
2023-04-28T17:23:54.866Z,51.80
2023-04-28T17:26:23.429Z,52.10
2023-04-28T17:29:07.777Z,52.30
2023-04-28T17:31:38.787Z,52.40
2023-04-28T17:34:08.959Z,52.50
2023-04-28T17:36:37.546Z,52.90
2023-04-28T17:39:06.097Z,52.90
2023-04-28T17:41:34.902Z,52.80
2023-04-28T17:44:05.346Z,53.10
2023-04-28T17:46:33.825Z,53.30
2023-04-28T17:49:02.371Z,53.40
2023-04-28T17:51:32.559Z,54.50
2023-04-28T17:54:00.997Z,54.10
2023-04-28T17:56:29.844Z,54.20
2023-04-28T17:58:58.518Z,54.50
2023-04-28T18:01:27.140Z,54.60
2023-04-28T18:03:57.634Z,54.80
2023-04-28T18:06:26.189Z,55.00
2023-04-28T18:08:56.480Z,55.30
2023-04-28T18:11:24.951Z,55.80
2023-04-28T18:13:53.423Z,56.10
2023-04-28T18:16:22.106Z,55.90
2023-04-28T18:18:53.078Z,56.20
2023-04-28T18:21:21.525Z,56.10
2023-04-28T18:23:50.165Z,56.40
2023-04-28T18:26:22.350Z,56.50
2023-04-28T18:28:52.541Z,56.80
2023-04-28T18:31:21.330Z,57.00
2023-04-28T18:33:49.985Z,57.10
2023-04-28T18:36:18.371Z,57.80
2023-04-28T18:38:54.522Z,57.90
2023-04-28T18:41:24.877Z,58.10
2023-04-28T18:43:53.265Z,58.30
2023-04-28T18:46:21.861Z,58.70
2023-04-28T18:48:50.415Z,58.70
2023-04-28T18:51:19.695Z,58.80
2023-04-28T18:53:50.945Z,58.90
2023-04-28T18:56:21.076Z,58.90
2023-04-28T18:58:51.507Z,59.10
2023-04-28T19:01:20.121Z,59.20
2023-04-28T19:03:48.616Z,59.30
2023-04-28T19:06:26.212Z,59.60
2023-04-28T19:08:54.657Z,59.60
2023-04-28T19:11:24.319Z,59.60
2023-04-28T19:13:56.959Z,59.80
2023-04-28T19:16:25.716Z,59.90
2023-04-28T19:18:54.396Z,59.90
2023-04-28T19:21:22.832Z,59.90
2023-04-28T19:23:51.393Z,62.00
2023-04-28T19:26:19.919Z,62.30
2023-04-28T19:28:48.407Z,61.90
2023-04-28T19:31:18.389Z,61.90
2023-04-28T19:33:47.136Z,61.40
2023-04-28T19:36:15.756Z,61.50
2023-04-28T19:38:46.761Z,61.80
2023-04-28T19:41:15.254Z,61.60
2023-04-28T19:43:43.954Z,61.70
2023-04-28T19:46:13.179Z,61.40
2023-04-28T19:48:46.048Z,62.10
2023-04-28T19:51:14.814Z,61.10
2023-04-28T19:53:46.654Z,60.90
2023-04-28T19:56:15.203Z,60.70
2023-04-28T19:58:43.627Z,60.70
2023-04-28T20:01:12.080Z,61.10
2023-04-28T20:03:40.620Z,61.30
2023-04-28T20:06:16.447Z,61.80
2023-04-28T20:08:45.922Z,61.80
2023-04-28T20:11:14.470Z,61.70
2023-04-28T20:13:42.813Z,61.40
2023-04-28T20:16:11.686Z,61.20
2023-04-28T20:18:40.258Z,61.10
2023-04-28T20:21:10.810Z,61.20
2023-04-28T20:23:41.067Z,61.10
2023-04-28T20:26:15.210Z,60.90
2023-04-28T20:28:45.204Z,60.80
2023-04-28T20:31:13.770Z,60.60
2023-04-28T20:33:42.359Z,60.40
2023-04-28T20:36:13.714Z,60.20
2023-04-28T20:38:42.573Z,60.10
2023-04-28T20:41:11.051Z,59.80
2023-04-28T20:43:41.246Z,59.60
2023-04-28T20:46:13.918Z,59.40
2023-04-28T20:48:42.784Z,59.40
2023-04-28T20:51:20.723Z,59.30
2023-04-28T20:53:51.067Z,59.20
2023-04-28T20:56:19.480Z,59.10
2023-04-28T20:58:48.170Z,58.80
2023-04-28T21:01:16.721Z,58.90
2023-04-28T21:03:45.407Z,58.70
2023-04-28T21:06:15.431Z,58.60
2023-04-28T21:08:44.180Z,58.60
2023-04-28T21:11:16.630Z,58.50
2023-04-28T21:13:47.115Z,58.40
2023-04-28T21:16:19.410Z,58.40
2023-04-28T21:18:50.001Z,58.40
2023-04-28T21:21:19.925Z,58.30
2023-04-28T21:23:48.642Z,58.30
2023-04-28T21:26:17.339Z,58.30
2023-04-28T21:28:45.773Z,58.30
2023-04-28T21:31:14.210Z,58.20
2023-04-28T21:33:42.554Z,58.20
2023-04-28T21:36:11.082Z,58.20
2023-04-28T21:38:40.919Z,58.10
2023-04-28T21:41:09.402Z,58.10
2023-04-28T21:43:37.751Z,58.10
2023-04-28T21:48:37.629Z,58.00
2023-04-28T21:51:06.309Z,58.00
2023-04-28T21:53:34.687Z,58.10
2023-04-28T21:56:05.788Z,58.10
2023-04-28T21:58:35.875Z,58.10
2023-04-28T22:01:06.563Z,58.10
2023-04-28T22:03:36.569Z,58.00
2023-04-28T22:06:05.796Z,58.00
2023-04-28T22:08:34.426Z,58.00
2023-04-28T22:11:04.793Z,58.10
2023-04-28T22:13:33.396Z,58.10
2023-04-28T22:16:02.140Z,58.10
2023-04-28T22:18:30.907Z,58.10
2023-04-28T22:20:59.358Z,58.10
2023-04-28T22:23:27.808Z,58.00
2023-04-28T22:25:59.793Z,58.00
2023-04-28T22:28:29.657Z,58.00
2023-04-28T22:30:58.201Z,57.90
2023-04-28T22:33:26.946Z,57.90
2023-04-28T22:35:55.311Z,57.90
2023-04-28T22:38:23.702Z,57.90
2023-04-28T22:40:52.634Z,57.90
2023-04-28T22:43:21.007Z,58.00
2023-04-28T22:45:51.284Z,57.90
2023-04-28T22:48:19.866Z,58.00
2023-04-28T22:50:48.330Z,58.10
2023-04-28T22:53:16.803Z,58.00
2023-04-28T22:55:45.207Z,58.00
2023-04-28T22:58:13.694Z,58.00
2023-04-28T23:00:42.883Z,58.00
2023-04-28T23:03:12.886Z,58.00
2023-04-28T23:05:41.380Z,58.00
2023-04-28T23:08:09.771Z,58.00
2023-04-28T23:10:38.178Z,58.00
2023-04-28T23:13:06.655Z,58.10
2023-04-28T23:15:35.029Z,58.00
2023-04-28T23:18:03.587Z,58.00
2023-04-28T23:20:34.852Z,58.10
2023-04-28T23:23:03.413Z,58.00
2023-04-28T23:25:32.024Z,58.10
2023-04-28T23:28:00.412Z,58.10
2023-04-28T23:30:28.900Z,58.00
2023-04-28T23:32:57.450Z,58.10
2023-04-28T23:35:25.934Z,58.10
2023-04-28T23:37:55.871Z,58.10
2023-04-28T23:40:24.263Z,58.10
2023-04-28T23:42:53.096Z,58.10
2023-04-28T23:45:21.480Z,58.20
2023-04-28T23:47:49.969Z,58.20
2023-04-28T23:50:18.823Z,58.20
2023-04-28T23:52:47.254Z,58.20
2023-04-28T23:55:17.354Z,58.20
2023-04-28T23:57:45.816Z,58.30
